Time;durP1;ratioP1;P1;durP2;ratioP2;P2;SDS_P1;SDS_P2;PMS_P1;PMS_P2;Temp;Humidity;BMP_temperature;BMP_pressure;BME280_temperature;BME280_humidity;BME280_pressure;Samples;Min_cycle;Max_cycle;Signal;HPM_P1;HPM_P2
2022/05/27 01:11:49;;;;;;;0.35;0.20;;;14.10;99.90;;;;;;4855813;29;20061;-88
2022/05/27 01:14:31;;;;;;;0.80;0.38;;;14.10;99.90;;;;;;4824677;29;20091;-88
2022/05/27 01:17:17;;;;;;;0.35;0.20;;;14.10;99.90;;;;;;4840737;29;20044;-88
2022/05/27 01:20:19;;;;;;;0.88;0.25;;;14.10;99.90;;;;;;4859994;29;20029;-88
2022/05/27 01:23:23;;;;;;;0.63;0.30;;;14.00;99.90;;;;;;4843388;29;20033;-88
2022/05/27 01:26:12;;;;;;;1.20;0.20;;;14.00;99.90;;;;;;4852958;29;20038;-89
2022/05/27 01:28:46;;;;;;;1.90;0.50;;;14.10;99.90;;;;;;4873635;29;20029;-88
2022/05/27 01:31:17;;;;;;;1.33;0.30;;;14.00;99.90;;;;;;4855205;29;20027;-90
2022/05/27 01:34:05;;;;;;;1.20;0.50;;;14.00;99.90;;;;;;4835677;29;20023;-88
2022/05/27 01:36:55;;;;;;;1.40;0.25;;;14.00;99.90;;;;;;4831341;29;20118;-88
2022/05/27 01:39:36;;;;;;;1.00;0.22;;;14.00;99.90;;;;;;4825274;29;20086;-89
2022/05/27 01:42:17;;;;;;;1.33;0.20;;;13.90;99.90;;;;;;4830004;29;20503;-88
2022/05/27 01:45:00;;;;;;;1.58;0.52;;;14.00;99.90;;;;;;4859836;29;20087;-88
2022/05/27 01:47:44;;;;;;;0.68;0.30;;;13.90;99.90;;;;;;4857845;29;20093;-88
2022/05/27 01:50:17;;;;;;;3.30;0.55;;;13.90;99.90;;;;;;4851286;29;20109;-89
2022/05/27 01:53:01;;;;;;;1.20;0.20;;;13.90;99.90;;;;;;4822237;29;20034;-88
2022/05/27 01:55:40;;;;;;;1.08;0.30;;;13.80;99.90;;;;;;4822756;29;20133;-88
2022/05/27 01:58:15;;;;;;;0.82;0.40;;;13.80;99.90;;;;;;4819841;29;20097;-88
2022/05/27 02:00:43;;;;;;;0.95;0.38;;;13.80;99.90;;;;;;4822661;29;20037;-88
2022/05/27 02:03:41;;;;;;;1.42;0.60;;;13.80;99.90;;;;;;4822035;29;20031;-88
2022/05/27 02:06:28;;;;;;;1.42;0.20;;;13.80;99.90;;;;;;4823078;29;20038;-88
2022/05/27 02:08:57;;;;;;;0.90;0.20;;;13.80;99.90;;;;;;4840629;29;20060;-88
2022/05/27 02:11:24;;;;;;;1.23;0.30;;;13.70;99.90;;;;;;4840916;29;20159;-88
2022/05/27 02:14:10;;;;;;;0.70;0.30;;;13.70;99.90;;;;;;4840061;29;20036;-88
2022/05/27 02:16:42;;;;;;;0.70;0.20;;;13.70;99.90;;;;;;4844557;29;20029;-88
2022/05/27 02:19:20;;;;;;;0.57;0.30;;;13.70;99.90;;;;;;4855849;29;20066;-88
2022/05/27 02:21:56;;;;;;;0.43;0.25;;;13.70;99.90;;;;;;4848916;29;20046;-88
2022/05/27 02:24:34;;;;;;;0.80;0.40;;;13.70;99.90;;;;;;4837215;29;20503;-88
2022/05/27 02:27:05;;;;;;;0.90;0.30;;;13.60;99.90;;;;;;4823548;29;20103;-88
2022/05/27 02:29:33;;;;;;;0.40;0.25;;;13.50;99.90;;;;;;4822259;29;20057;-88
2022/05/27 02:32:12;;;;;;;1.45;0.40;;;13.50;99.90;;;;;;4821593;29;20125;-88
2022/05/27 02:37:33;;;;;;;0.90;0.30;;;13.50;99.90;;;;;;4823470;29;20493;-88
2022/05/27 02:40:02;;;;;;;3.72;0.32;;;13.50;99.90;;;;;;4821951;29;20492;-87
2022/05/27 02:42:36;;;;;;;1.10;0.30;;;13.40;99.90;;;;;;4821387;29;20027;-89
2022/05/27 02:45:15;;;;;;;0.95;0.40;;;13.40;99.90;;;;;;4822009;29;20048;-88
2022/05/27 02:48:18;;;;;;;1.10;0.35;;;13.40;99.90;;;;;;4821821;29;20026;-87
2022/05/27 02:50:55;;;;;;;1.60;0.40;;;13.40;99.90;;;;;;4833027;29;20437;-88
2022/05/27 02:53:44;;;;;;;2.40;0.43;;;13.40;99.90;;;;;;4821617;29;20094;-88
2022/05/27 02:56:19;;;;;;;1.35;0.50;;;13.40;99.90;;;;;;4822505;29;20030;-88
2022/05/27 02:58:46;;;;;;;0.60;0.30;;;13.30;99.90;;;;;;4823444;29;20090;-87
2022/05/27 03:01:15;;;;;;;0.80;0.28;;;13.30;99.90;;;;;;4820541;29;20172;-87
2022/05/27 03:03:41;;;;;;;0.95;0.40;;;13.20;99.90;;;;;;4829592;29;20034;-89
2022/05/27 03:06:31;;;;;;;0.98;0.38;;;13.20;99.90;;;;;;4846563;29;20069;-87
2022/05/27 03:09:04;;;;;;;0.70;0.40;;;13.20;99.90;;;;;;4848532;29;20491;-87
2022/05/27 03:11:42;;;;;;;0.55;0.30;;;13.20;99.90;;;;;;4846187;29;20090;-88
2022/05/27 03:14:29;;;;;;;0.95;0.38;;;13.10;99.90;;;;;;4855895;29;20037;-87
2022/05/27 03:16:57;;;;;;;0.68;0.30;;;13.10;99.90;;;;;;4823159;29;20365;-88
2022/05/27 03:19:36;;;;;;;1.92;0.40;;;13.10;99.90;;;;;;4825343;29;20069;-88
2022/05/27 03:22:43;;;;;;;0.90;0.30;;;13.20;99.90;;;;;;4839472;29;20026;-88
2022/05/27 03:25:19;;;;;;;2.38;0.40;;;13.10;99.90;;;;;;4839782;29;20072;-88
2022/05/27 03:28:01;;;;;;;0.98;0.30;;;13.20;99.90;;;;;;4842624;29;20401;-88
2022/05/27 03:31:00;;;;;;;2.60;0.40;;;13.20;99.90;;;;;;4839613;29;20026;-87
2022/05/27 03:33:58;;;;;;;0.98;0.40;;;13.20;99.90;;;;;;4838421;29;20038;-88
2022/05/27 03:36:42;;;;;;;1.35;0.40;;;13.30;99.90;;;;;;4839604;29;20038;-87
2022/05/27 03:39:18;;;;;;;0.80;0.40;;;13.30;99.90;;;;;;4826982;29;20041;-88
2022/05/27 03:41:49;;;;;;;0.85;0.32;;;13.40;99.90;;;;;;4856423;29;20491;-89
2022/05/27 03:44:17;;;;;;;0.38;0.20;;;13.40;99.90;;;;;;4857758;29;20029;-88
2022/05/27 03:46:44;;;;;;;1.90;0.28;;;13.50;99.90;;;;;;4836555;29;20015;-88
2022/05/27 03:49:10;;;;;;;3.58;0.40;;;13.50;99.90;;;;;;4822608;29;20434;-88
2022/05/27 03:51:58;;;;;;;5.85;0.40;;;13.50;99.90;;;;;;4820965;29;20380;-88
2022/05/27 03:54:24;;;;;;;1.40;0.40;;;13.60;99.90;;;;;;4821068;29;20041;-88
2022/05/27 03:56:50;;;;;;;1.05;0.38;;;13.60;99.90;;;;;;4821250;29;20042;-88
2022/05/27 03:59:18;;;;;;;1.27;0.35;;;13.60;99.90;;;;;;4828122;29;20562;-88
2022/05/27 04:01:50;;;;;;;0.90;0.32;;;13.60;99.90;;;;;;4838941;29;20030;-88
2022/05/27 04:04:18;;;;;;;1.17;0.38;;;13.70;99.90;;;;;;4840754;29;20105;-88
2022/05/27 04:06:46;;;;;;;1.13;0.40;;;13.70;99.90;;;;;;4834983;29;20066;-88
2022/05/27 04:09:13;;;;;;;1.20;0.40;;;13.70;99.90;;;;;;4822151;29;20057;-88
2022/05/27 04:11:39;;;;;;;0.85;0.43;;;13.70;99.90;;;;;;4820674;29;20034;-87
2022/05/27 04:14:04;;;;;;;0.73;0.40;;;13.70;99.90;;;;;;4821169;29;20197;-88
2022/05/27 04:16:30;;;;;;;1.48;0.50;;;13.70;99.90;;;;;;4832698;29;20515;-87
2022/05/27 04:18:56;;;;;;;0.77;0.32;;;13.60;99.90;;;;;;4832043;29;20078;-88
2022/05/27 04:21:24;;;;;;;0.50;0.25;;;13.70;99.90;;;;;;4843290;29;20030;-88
2022/05/27 04:23:51;;;;;;;1.95;0.50;;;13.60;99.90;;;;;;4821115;29;20050;-88
2022/05/27 04:26:17;;;;;;;1.58;0.40;;;13.70;99.90;;;;;;4821351;29;20091;-88
2022/05/27 04:28:44;;;;;;;0.90;0.30;;;13.60;99.90;;;;;;4822318;29;20109;-88
2022/05/27 04:31:10;;;;;;;0.90;0.50;;;13.60;99.90;;;;;;4821278;29;20054;-88
2022/05/27 04:33:36;;;;;;;1.85;0.55;;;13.50;99.90;;;;;;4821319;29;20468;-88
2022/05/27 04:36:02;;;;;;;1.73;0.40;;;13.20;99.90;;;;;;4822706;29;20037;-88
2022/05/27 04:38:29;;;;;;;1.17;0.40;;;13.30;99.90;;;;;;4825720;29;20022;-88
2022/05/27 04:40:54;;;;;;;1.27;0.30;;;13.30;99.90;;;;;;4825402;29;20053;-88
2022/05/27 04:43:20;;;;;;;0.68;0.35;;;13.20;99.90;;;;;;4833129;29;20026;-88
2022/05/27 04:45:46;;;;;;;1.33;0.40;;;13.30;99.90;;;;;;4841610;29;20046;-88
2022/05/27 04:48:14;;;;;;;1.75;0.32;;;13.30;99.90;;;;;;4840925;29;20034;-89
2022/05/27 04:50:42;;;;;;;3.63;0.68;;;13.20;99.90;;;;;;4842712;29;20030;-87
2022/05/27 04:53:11;;;;;;;0.55;0.22;;;13.30;99.90;;;;;;4835480;29;20117;-88
2022/05/27 04:55:38;;;;;;;0.60;0.30;;;13.20;99.90;;;;;;4827673;29;20038;-88
2022/05/27 04:58:04;;;;;;;0.50;0.30;;;13.20;99.90;;;;;;4822260;29;20050;-88
2022/05/27 05:00:38;;;;;;;0.90;0.40;;;13.30;99.90;;;;;;4825188;29;20038;-88
2022/05/27 05:03:07;;;;;;;0.80;0.30;;;13.30;99.90;;;;;;4824372;29;20096;-88
2022/05/27 05:05:34;;;;;;;2.45;0.45;;;13.50;99.90;;;;;;4824267;29;20065;-88
2022/05/27 05:08:07;;;;;;;1.17;0.50;;;13.60;99.90;;;;;;4824340;29;20070;-88
2022/05/27 05:10:35;;;;;;;1.80;0.32;;;13.70;99.90;;;;;;4845121;29;20037;-88
2022/05/27 05:13:02;;;;;;;0.77;0.40;;;13.90;99.90;;;;;;4853304;29;20104;-89
2022/05/27 05:15:28;;;;;;;2.85;0.50;;;14.00;99.90;;;;;;4860474;29;20041;-88
2022/05/27 05:17:57;;;;;;;0.60;0.30;;;14.00;99.90;;;;;;4842957;29;20039;-89
2022/05/27 05:20:26;;;;;;;1.30;0.40;;;14.10;99.90;;;;;;4856814;29;20042;-88
2022/05/27 05:22:52;;;;;;;1.15;0.60;;;14.30;99.90;;;;;;4842701;29;20030;-88
2022/05/27 05:25:17;;;;;;;0.88;0.40;;;14.30;99.90;;;;;;4841673;29;20034;-88
2022/05/27 05:27:43;;;;;;;1.67;0.50;;;14.30;99.90;;;;;;4833352;29;20026;-88
2022/05/27 05:30:12;;;;;;;2.15;0.25;;;14.40;99.90;;;;;;4823336;29;20027;-88
2022/05/27 05:32:39;;;;;;;2.03;0.70;;;14.40;99.90;;;;;;4823062;29;20042;-88
2022/05/27 05:35:09;;;;;;;3.13;0.60;;;14.30;99.90;;;;;;4823802;29;20042;-88
2022/05/27 05:37:35;;;;;;;1.40;0.40;;;14.30;99.90;;;;;;4852168;29;20039;-88
2022/05/27 05:40:01;;;;;;;1.05;0.55;;;14.50;99.90;;;;;;4859753;29;20041;-88
2022/05/27 05:42:27;;;;;;;0.90;0.30;;;14.30;99.90;;;;;;4859603;29;20089;-88
2022/05/27 05:44:55;;;;;;;1.30;0.55;;;14.20;99.90;;;;;;4856381;29;20033;-88
2022/05/27 05:47:20;;;;;;;1.17;0.32;;;14.30;99.90;;;;;;4823010;29;20407;-88
2022/05/27 05:49:46;;;;;;;2.28;0.60;;;14.40;99.90;;;;;;4822920;29;20034;-88
2022/05/27 05:52:12;;;;;;;1.52;0.40;;;14.50;99.90;;;;;;4822493;29;20030;-89
2022/05/27 05:54:43;;;;;;;0.98;0.40;;;14.60;99.90;;;;;;4822542;29;20070;-88
2022/05/27 05:57:10;;;;;;;1.52;0.32;;;14.70;99.90;;;;;;4823842;29;20045;-89
2022/05/27 05:59:38;;;;;;;1.70;0.50;;;14.60;99.90;;;;;;4820948;29;20054;-88
2022/05/27 06:02:07;;;;;;;0.82;0.45;;;14.60;99.90;;;;;;4822540;29;20046;-88
2022/05/27 06:04:33;;;;;;;1.85;0.20;;;14.70;99.90;;;;;;4823847;29;20059;-88
2022/05/27 06:06:59;;;;;;;3.50;0.45;;;14.70;99.90;;;;;;4822573;29;20034;-88
2022/05/27 06:09:28;;;;;;;1.17;0.50;;;14.60;99.90;;;;;;4822171;29;20069;-88
2022/05/27 06:11:55;;;;;;;2.08;0.50;;;14.60;99.90;;;;;;4837609;29;20121;-88
2022/05/27 06:14:21;;;;;;;1.88;0.55;;;14.60;99.90;;;;;;4822589;29;20030;-88
2022/05/27 06:16:50;;;;;;;2.65;0.50;;;14.60;99.90;;;;;;4822660;29;20031;-89
2022/05/27 06:19:16;;;;;;;2.17;0.50;;;14.70;99.90;;;;;;4838979;29;20260;-89
2022/05/27 06:21:42;;;;;;;1.35;0.45;;;14.80;99.90;;;;;;4855641;29;20025;-89
2022/05/27 06:24:08;;;;;;;1.75;0.55;;;15.00;99.90;;;;;;4859050;29;20129;-88
2022/05/27 06:26:33;;;;;;;0.55;0.35;;;14.70;99.90;;;;;;4831121;29;20046;-89
2022/05/27 06:34:28;;;;;;;3.33;0.52;;;14.80;99.90;;;;;;4823507;29;20081;-89
2022/05/27 06:37:14;;;;;;;2.15;0.98;;;14.90;99.90;;;;;;4822036;29;20034;-88
2022/05/27 06:39:41;;;;;;;1.65;0.55;;;15.00;99.90;;;;;;4822156;29;20404;-89
2022/05/27 06:42:09;;;;;;;1.60;0.57;;;15.10;99.90;;;;;;4822876;29;20053;-88
2022/05/27 06:44:35;;;;;;;3.40;0.70;;;15.20;99.90;;;;;;4823157;29;20033;-88
2022/05/27 06:47:05;;;;;;;1.63;0.73;;;15.20;99.90;;;;;;4822118;29;20027;-89
2022/05/27 06:49:31;;;;;;;2.17;0.47;;;15.30;99.90;;;;;;4821928;29;20034;-87
2022/05/27 06:51:57;;;;;;;1.88;0.65;;;15.30;99.90;;;;;;4821723;29;20503;-88
2022/05/27 06:54:23;;;;;;;2.15;0.90;;;15.30;99.90;;;;;;4823102;29;20095;-89
2022/05/27 06:56:50;;;;;;;1.50;0.60;;;15.30;99.90;;;;;;4827405;29;20063;-87
2022/05/27 06:59:16;;;;;;;1.83;0.70;;;15.40;99.90;;;;;;4832580;29;20498;-87
2022/05/27 07:01:43;;;;;;;1.30;0.52;;;15.30;99.90;;;;;;4858887;29;20025;-90
2022/05/27 07:04:12;;;;;;;2.03;0.70;;;15.30;99.90;;;;;;4859873;29;20491;-90
2022/05/27 07:06:44;;;;;;;1.98;0.55;;;15.30;99.90;;;;;;4860274;29;20148;-89
2022/05/27 07:09:16;;;;;;;1.63;0.50;;;15.30;99.90;;;;;;4855085;23;20059;-89
2022/05/27 07:11:55;;;;;;;1.50;0.40;;;15.40;99.90;;;;;;4822929;29;20076;-88
2022/05/27 07:14:23;;;;;;;1.58;0.35;;;15.40;99.90;;;;;;4837396;29;20066;-88
2022/05/27 07:17:30;;;;;;;0.90;0.50;;;15.40;99.90;;;;;;4823426;29;20022;-88
2022/05/27 07:20:03;;;;;;;1.45;0.50;;;15.50;99.90;;;;;;4832781;29;20053;-88
2022/05/27 07:22:32;;;;;;;1.40;0.63;;;15.50;99.90;;;;;;4849219;29;20468;-88
2022/05/27 07:25:03;;;;;;;1.85;0.63;;;15.50;99.90;;;;;;4855091;29;20030;-87
2022/05/27 07:27:33;;;;;;;1.15;0.40;;;15.60;99.90;;;;;;4849934;29;20034;-88
2022/05/27 07:30:06;;;;;;;2.58;0.60;;;15.70;99.90;;;;;;4852044;29;20042;-88
2022/05/27 07:32:33;;;;;;;5.93;1.00;;;15.60;99.90;;;;;;4854366;29;20030;-88
2022/05/27 07:35:11;;;;;;;2.50;0.70;;;15.70;99.90;;;;;;4846722;29;20567;-88
2022/05/27 07:37:40;;;;;;;2.00;0.60;;;15.70;99.90;;;;;;4824349;29;20050;-88
2022/05/27 07:40:20;;;;;;;1.90;0.52;;;15.70;99.90;;;;;;4840374;29;20037;-88
2022/05/27 07:42:47;;;;;;;1.58;0.60;;;15.70;99.90;;;;;;4837748;29;20030;-88
2022/05/27 07:45:36;;;;;;;1.35;0.63;;;15.70;99.90;;;;;;4846836;29;20028;-88
2022/05/27 07:48:11;;;;;;;1.00;0.40;;;15.70;99.90;;;;;;4849810;29;20026;-88
2022/05/27 07:50:43;;;;;;;1.77;0.52;;;15.60;99.90;;;;;;4847334;29;20032;-87
2022/05/27 07:53:12;;;;;;;1.42;0.60;;;15.70;99.90;;;;;;4859567;29;20033;-89
2022/05/27 07:55:43;;;;;;;2.53;0.77;;;15.70;99.90;;;;;;4853097;29;20029;-88
2022/05/27 07:58:09;;;;;;;1.83;0.60;;;15.70;99.90;;;;;;4848088;29;20141;-88
2022/05/27 08:00:43;;;;;;;1.88;0.80;;;15.80;99.90;;;;;;4841680;29;20494;-88
2022/05/27 08:03:21;;;;;;;;;;;;;;;;;;;;;
2022/05/27 08:05:56;;;;;;;3.47;0.55;;;15.60;99.90;;;;;;4859480;29;20030;-87
2022/05/27 08:08:25;;;;;;;1.92;0.65;;;15.60;99.90;;;;;;4821358;29;20169;-88
2022/05/27 08:11:06;;;;;;;1.20;0.50;;;15.70;99.90;;;;;;4822653;29;20030;-88
2022/05/27 08:13:36;;;;;;;1.73;0.80;;;15.80;99.90;;;;;;4825670;29;20034;-88
2022/05/27 08:16:10;;;;;;;2.15;0.80;;;15.80;99.90;;;;;;4826757;29;20038;-87
2022/05/27 08:18:37;;;;;;;1.15;0.57;;;16.20;99.90;;;;;;4840333;29;20057;-88
2022/05/27 08:21:03;;;;;;;1.35;0.57;;;16.10;99.90;;;;;;4849655;29;20428;-88
2022/05/27 08:23:29;;;;;;;2.60;0.55;;;16.30;99.90;;;;;;4840601;29;20117;-88
2022/05/27 08:25:56;;;;;;;1.25;0.60;;;16.60;99.90;;;;;;4826247;29;20125;-87
2022/05/27 08:28:30;;;;;;;1.15;0.60;;;16.70;99.90;;;;;;4826262;29;20110;-88
2022/05/27 08:30:59;;;;;;;2.83;0.90;;;16.70;99.90;;;;;;4826269;29;20058;-88
2022/05/27 08:38:00;;;;;;;1.60;0.60;;;16.80;99.90;;;;;;4826028;29;20030;-88
2022/05/27 08:39:01;;;;;;;1.13;0.55;;;16.90;99.90;;;;;;4825402;29;20057;-88
2022/05/27 08:42:09;;;;;;;1.52;0.57;;;17.00;99.90;;;;;;4831890;29;20449;-88
2022/05/27 08:45:13;;;;;;;0.80;0.35;;;17.20;99.90;;;;;;4824601;29;20507;-88
2022/05/27 08:47:46;;;;;;;1.05;0.40;;;17.10;99.90;;;;;;4824755;29;20023;-88
2022/05/27 08:50:37;;;;;;;1.50;0.60;;;17.20;99.90;;;;;;4841877;29;20120;-88
2022/05/27 08:53:06;;;;;;;1.85;0.60;;;17.10;99.90;;;;;;4844459;29;20026;-88
2022/05/27 09:01:12;;;;;;;1.60;0.80;;;17.00;99.90;;;;;;4861889;29;20114;-87
2022/05/27 09:03:58;;;;;;;1.20;0.57;;;16.80;99.90;;;;;;4859472;29;20050;-87
2022/05/27 09:06:32;;;;;;;2.35;0.47;;;17.00;99.90;;;;;;4851467;29;20035;-88
2022/05/27 09:08:58;;;;;;;1.67;0.40;;;17.30;99.90;;;;;;4846348;29;20121;-88
2022/05/27 09:11:53;;;;;;;1.17;0.52;;;17.40;99.90;;;;;;4845552;29;20061;-89
2022/05/27 09:14:30;;;;;;;1.45;0.40;;;17.70;99.90;;;;;;4845014;29;20449;-89
2022/05/27 09:17:01;;;;;;;1.08;0.40;;;18.00;99.90;;;;;;4843156;29;20058;-88
2022/05/27 09:19:45;;;;;;;1.33;0.60;;;18.10;99.90;;;;;;4844154;29;20045;-88
2022/05/27 09:22:31;;;;;;;1.10;0.50;;;18.10;99.90;;;;;;4829736;29;20034;-88
2022/05/27 09:25:20;;;;;;;2.90;0.47;;;18.40;99.90;;;;;;4841066;29;20105;-88
2022/05/27 09:28:04;;;;;;;1.60;0.32;;;18.80;99.90;;;;;;4842585;29;20463;-89
2022/05/27 09:30:34;;;;;;;0.75;0.38;;;19.30;99.90;;;;;;4842453;29;20356;-89
2022/05/27 09:33:07;;;;;;;1.25;0.40;;;19.50;99.90;;;;;;4837508;29;20090;-89
2022/05/27 09:36:04;;;;;;;1.65;0.55;;;19.40;99.90;;;;;;4823793;29;20030;-89
2022/05/27 09:38:34;;;;;;;2.15;0.57;;;19.50;99.90;;;;;;4841333;29;20033;-88
2022/05/27 09:41:47;;;;;;;4.00;1.45;;;19.60;99.90;;;;;;4841883;29;20048;-88
2022/05/27 09:44:48;;;;;;;2.03;0.70;;;19.90;99.90;;;;;;4832051;29;20064;-90
2022/05/27 09:47:22;;;;;;;2.75;0.35;;;19.90;99.90;;;;;;4839784;29;20514;-90
2022/05/27 09:50:18;;;;;;;1.10;0.40;;;20.10;99.90;;;;;;4825240;29;20034;-90
2022/05/27 09:52:45;;;;;;;0.80;0.43;;;20.20;99.90;;;;;;4836458;29;20129;-90
2022/05/27 09:55:23;;;;;;;0.95;0.43;;;20.40;99.90;;;;;;4853709;29;20491;-90
2022/05/27 09:58:09;;;;;;;0.80;0.30;;;20.90;99.80;;;;;;4854407;29;20046;-88
2022/05/27 10:01:00;;;;;;;2.35;0.40;;;20.90;98.90;;;;;;4840766;29;20066;-90
2022/05/27 10:03:39;;;;;;;1.30;0.30;;;20.80;98.50;;;;;;4853691;29;20080;-88
2022/05/27 10:06:24;;;;;;;0.55;0.20;;;20.60;98.70;;;;;;4863722;29;20059;-89
2022/05/27 10:09:36;;;;;;;0.85;0.30;;;20.60;98.50;;;;;;4859150;29;20046;-89
2022/05/27 10:12:04;;;;;;;0.50;0.22;;;20.30;99.20;;;;;;4887231;29;20048;-90
2022/05/27 10:15:01;;;;;;;0.95;0.35;;;20.00;99.00;;;;;;4862403;29;20066;-89
2022/05/27 10:17:36;;;;;;;1.17;0.30;;;20.10;98.80;;;;;;4857207;29;20037;-88
2022/05/27 10:20:30;;;;;;;1.17;0.50;;;20.10;99.00;;;;;;4862616;29;20177;-90
2022/05/27 10:23:41;;;;;;;2.08;0.40;;;20.20;98.80;;;;;;4859571;29;20116;-88
2022/05/27 10:26:33;;;;;;;0.88;0.30;;;20.40;97.80;;;;;;4848257;29;20516;-88
2022/05/27 10:29:15;;;;;;;1.85;0.55;;;20.80;97.60;;;;;;4842656;29;20042;-88
2022/05/27 10:31:53;;;;;;;;;;;20.90;97.40;;;;;;4842474;29;20030;-88
2022/05/27 10:34:48;;;;;;;0.98;0.30;;;20.90;96.90;;;;;;4840224;29;19908;-87
2022/05/27 10:37:29;;;;;;;0.70;0.20;;;21.40;96.00;;;;;;4853807;29;20038;-88
2022/05/27 10:40:19;;;;;;;0.68;0.40;;;21.70;95.00;;;;;;4823613;29;20026;-88
2022/05/27 10:42:51;;;;;;;0.60;0.30;;;21.90;95.10;;;;;;4838683;29;20104;-88
2022/05/27 10:45:55;;;;;;;1.85;0.40;;;22.10;94.00;;;;;;4837768;29;20399;-87
2022/05/27 10:48:49;;;;;;;0.50;0.30;;;21.90;94.60;;;;;;4832980;29;20044;-88
2022/05/27 10:51:53;;;;;;;0.70;0.30;;;22.00;94.80;;;;;;4822861;29;20031;-89
2022/05/27 10:54:39;;;;;;;1.52;0.25;;;21.30;94.70;;;;;;4822896;29;20038;-88
2022/05/27 11:03:53;;;;;;;0.40;0.20;;;21.30;94.50;;;;;;4840982;29;20507;-88
2022/05/27 11:06:35;;;;;;;1.17;0.40;;;21.30;94.00;;;;;;4832957;29;20030;-87
2022/05/27 11:09:41;;;;;;;1.65;0.40;;;21.70;93.90;;;;;;4837542;29;20118;-88
2022/05/27 11:16:01;;;;;;;1.05;0.40;;;21.50;94.90;;;;;;4838929;29;20166;-87
2022/05/27 11:18:48;;;;;;;1.98;0.30;;;21.70;94.80;;;;;;4837186;29;20039;-88
2022/05/27 11:21:42;;;;;;;0.80;0.30;;;21.70;94.50;;;;;;4827221;29;20026;-88
2022/05/27 11:24:26;;;;;;;;;;;;;;;;;;;;;
2022/05/27 11:27:27;;;;;;;;;;;;;;;;;;;;;
2022/05/27 11:30:17;;;;;;;0.30;0.20;;;21.70;94.10;;;;;;4823022;29;20046;-88
2022/05/27 11:33:37;;;;;;;;;;;;;;;;;;;;;
2022/05/27 11:39:51;;;;;;;1.02;0.30;;;22.00;93.70;;;;;;4823054;29;20141;-88
2022/05/27 11:42:56;;;;;;;0.35;0.20;;;22.30;93.60;;;;;;4821911;29;20042;-90
2022/05/27 11:51:11;;;;;;;0.50;0.30;;;23.00;92.00;;;;;;4886556;23;20061;-88
2022/05/27 11:54:02;;;;;;;1.65;0.40;;;23.10;92.40;;;;;;4865997;29;20518;-88
2022/05/27 11:56:44;;;;;;;0.63;0.30;;;22.70;92.40;;;;;;4870971;29;20094;-88
2022/05/27 11:59:26;;;;;;;0.52;0.20;;;22.70;91.90;;;;;;4839408;24;20050;-89
2022/05/27 12:02:19;;;;;;;0.35;0.20;;;22.50;92.10;;;;;;4804654;29;20031;-87
2022/05/27 12:04:53;;;;;;;0.50;0.30;;;22.10;92.50;;;;;;4803344;29;20031;-88
2022/05/27 12:10:40;;;;;;;0.57;0.20;;;21.70;92.80;;;;;;4846838;23;20113;-88
2022/05/27 12:13:41;;;;;;;0.77;0.20;;;21.80;93.30;;;;;;4839125;29;20113;-88
2022/05/27 12:16:35;;;;;;;1.10;0.20;;;21.60;93.70;;;;;;4837322;29;20037;-87
2022/05/27 12:20:00;;;;;;;0.30;0.30;;;21.60;93.50;;;;;;4823894;29;20030;-89
2022/05/27 12:22:45;;;;;;;0.20;0.10;;;21.50;93.80;;;;;;4820766;29;20027;-87
2022/05/27 12:25:28;;;;;;;0.57;0.20;;;21.60;93.30;;;;;;4821152;29;20444;-88
2022/05/27 12:31:27;;;;;;;0.40;0.17;;;22.30;93.40;;;;;;4807699;29;20047;-88
2022/05/27 12:34:39;;;;;;;2.10;0.20;;;21.70;93.40;;;;;;4827928;29;20034;-88
2022/05/27 12:37:30;;;;;;;0.45;0.13;;;21.50;93.60;;;;;;4837348;29;20040;-88
2022/05/27 12:40:18;;;;;;;0.35;0.20;;;21.60;93.90;;;;;;4820900;29;20500;-88
2022/05/27 12:42:59;;;;;;;0.80;0.25;;;21.30;94.20;;;;;;4828733;29;20090;-89
2022/05/27 12:45:29;;;;;;;;;;;21.20;94.80;;;;;;4823015;29;20118;-88
2022/05/27 12:48:50;;;;;;;1.75;0.38;;;20.80;94.50;;;;;;4821134;29;20441;-88
2022/05/27 12:51:23;;;;;;;0.50;0.22;;;20.60;95.20;;;;;;4824755;29;20051;-89
2022/05/27 12:53:55;;;;;;;0.38;0.20;;;20.40;95.50;;;;;;4802971;29;20035;-88
2022/05/27 13:02:25;;;;;;;0.63;0.30;;;20.50;95.70;;;;;;4807424;29;20211;-89
2022/05/27 13:05:06;;;;;;;0.45;0.25;;;20.40;95.50;;;;;;4806212;29;20019;-88
2022/05/27 13:07:35;;;;;;;1.75;0.38;;;20.50;95.90;;;;;;4814085;29;20026;-88
2022/05/27 19:12:16;;;;;;;2.25;0.50;;;16.20;99.90;;;;;;4840075;29;20053;-89
2022/05/27 19:14:56;;;;;;;0.82;0.30;;;16.20;99.90;;;;;;4842577;29;20140;-89
2022/05/27 19:17:24;;;;;;;1.85;0.77;;;16.10;99.90;;;;;;4841628;29;20274;-88
2022/05/27 19:22:43;;;;;;;1.20;0.40;;;16.10;99.90;;;;;;4823757;29;20038;-89
2022/05/27 19:25:15;;;;;;;2.42;0.30;;;15.90;99.90;;;;;;4822740;29;20030;-89
2022/05/27 19:27:41;;;;;;;;;;;15.90;99.90;;;;;;4821589;29;20204;-88
2022/05/27 19:30:10;;;;;;;1.23;0.40;;;15.80;99.90;;;;;;4844530;29;20015;-89
2022/05/27 19:32:45;;;;;;;1.38;0.40;;;15.80;99.90;;;;;;4859069;29;20049;-88
2022/05/27 19:35:23;;;;;;;3.10;0.40;;;15.70;99.90;;;;;;4848831;29;20488;-89
2022/05/27 19:37:52;;;;;;;0.95;0.50;;;15.70;99.90;;;;;;4834679;29;20070;-90
2022/05/27 19:40:34;;;;;;;0.75;0.40;;;15.60;99.90;;;;;;4841680;29;20643;-89
2022/05/27 19:43:00;;;;;;;1.17;0.35;;;15.70;99.90;;;;;;4859958;29;20017;-89
2022/05/27 19:45:38;;;;;;;0.93;0.47;;;15.60;99.90;;;;;;4853725;29;20046;-89
2022/05/27 19:48:13;;;;;;;1.92;0.40;;;15.60;99.90;;;;;;4822788;29;20531;-89
2022/05/27 19:50:59;;;;;;;0.90;0.40;;;15.60;99.90;;;;;;4822883;29;20043;-88
2022/05/27 19:53:32;;;;;;;2.70;0.50;;;15.50;99.90;;;;;;4822900;29;20121;-89
2022/05/27 19:56:11;;;;;;;1.42;0.60;;;15.50;99.90;;;;;;4822831;29;20093;-89
2022/05/27 20:06:26;;;;;;;0.82;0.35;;;15.30;99.90;;;;;;3238314;27;20050;-89
2022/05/27 20:09:30;;;;;;;1.30;0.40;;;15.50;99.90;;;;;;4852423;29;20040;-89
2022/05/27 20:46:29;;;;;;;;;;;;;;;;;;;;;
2022/05/27 20:53:21;;;;;;;1.10;0.40;;;14.90;99.90;;;;;;4733030;30;20100;-88
2022/05/27 23:27:38;;;;;;;3.13;1.30;;;14.30;99.90;;;;;;3087259;27;20137;-89
2022/05/27 23:30:21;;;;;;;4.10;0.90;;;14.20;99.90;;;;;;4825253;29;20571;-89
2022/05/27 23:32:55;;;;;;;3.20;0.82;;;14.10;99.90;;;;;;4823059;29;20038;-89
2022/05/27 23:35:20;;;;;;;1.33;0.65;;;14.10;99.90;;;;;;4822771;29;20096;-90
2022/05/27 23:37:49;;;;;;;3.65;0.73;;;14.00;99.90;;;;;;4822228;29;20037;-89
2022/05/27 23:40:21;;;;;;;1.77;0.82;;;14.10;99.90;;;;;;4807001;29;20064;-90
2022/05/27 23:43:07;;;;;;;5.80;0.90;;;13.90;99.90;;;;;;4805234;29;20034;-89
2022/05/27 23:45:39;;;;;;;3.58;1.00;;;13.80;99.90;;;;;;4805404;29;20087;-89
2022/05/27 23:48:07;;;;;;;1.80;0.70;;;13.70;99.90;;;;;;4805574;29;20058;-89
2022/05/27 23:53:31;;;;;;;2.47;0.80;;;13.60;99.90;;;;;;4806463;29;20035;-89
2022/05/27 23:56:06;;;;;;;3.35;0.80;;;13.60;99.90;;;;;;4805165;29;20568;-89
2022/05/27 23:58:35;;;;;;;2.05;0.90;;;13.60;99.90;;;;;;4809079;29;20042;-89
